Time;durP1;ratioP1;P1;durP2;ratioP2;P2;SDS_P1;SDS_P2;PMS_P1;PMS_P2;Temp;Humidity;BMP_temperature;BMP_pressure;BME280_temperature;BME280_humidity;BME280_pressure;Samples;Min_cycle;Max_cycle;Signal;HPM_P1;HPM_P2
2023/10/13 00:00:37;;;;;;;0.80;0.40;;;;;;;13.76;100.00;100861.13;5048655;28;20453;-68
2023/10/13 00:03:06;;;;;;;0.80;0.40;;;;;;;13.78;100.00;100864.47;5057889;28;20813;-69
2023/10/13 00:05:35;;;;;;;0.80;0.40;;;;;;;13.83;100.00;100864.63;5041330;28;20418;-68
2023/10/13 00:08:06;;;;;;;0.80;0.40;;;;;;;13.83;100.00;100865.47;5050556;28;20413;-69
2023/10/13 00:10:34;;;;;;;0.80;0.40;;;;;;;13.78;100.00;100867.19;5043827;28;20423;-69
2023/10/13 00:13:11;;;;;;;0.80;0.40;;;;;;;13.83;100.00;100861.91;5045709;28;20495;-68
2023/10/13 00:15:52;;;;;;;1.00;0.60;;;;;;;13.74;100.00;100861.38;5041936;28;20421;-69
2023/10/13 00:18:22;;;;;;;0.80;0.40;;;;;;;13.80;100.00;100851.47;5046768;28;20411;-69
2023/10/13 00:20:51;;;;;;;0.80;0.40;;;;;;;13.77;100.00;100846.47;5047982;28;20493;-68
2023/10/13 00:23:21;;;;;;;0.80;0.50;;;;;;;13.80;100.00;100848.75;5051546;28;20438;-70
2023/10/13 00:25:56;;;;;;;0.80;0.40;;;;;;;13.83;100.00;100853.75;5057410;28;20398;-69
2023/10/13 00:28:26;;;;;;;0.80;0.50;;;;;;;13.75;100.00;100851.28;5051327;28;20839;-69
2023/10/13 00:31:03;;;;;;;2.20;1.07;;;;;;;13.71;100.00;100850.09;5052479;28;20397;-69
2023/10/13 00:33:32;;;;;;;0.80;0.40;;;;;;;13.71;100.00;100837.31;5047151;28;20449;-68
2023/10/13 00:36:01;;;;;;;0.80;0.40;;;;;;;13.69;100.00;100831.28;5048983;28;20513;-68
2023/10/13 00:38:30;;;;;;;0.80;0.50;;;;;;;13.69;100.00;100841.34;5047774;28;20450;-68
2023/10/13 00:41:04;;;;;;;0.90;0.50;;;;;;;13.71;100.00;100833.78;5051621;28;20489;-68
2023/10/13 00:43:34;;;;;;;0.80;0.40;;;;;;;13.61;100.00;100828.00;5053616;28;20450;-69
2023/10/13 00:46:07;;;;;;;0.80;0.43;;;;;;;13.63;100.00;100825.91;5055411;28;20952;-68
2023/10/13 00:48:51;;;;;;;0.80;0.40;;;;;;;13.68;100.00;100824.19;5052436;28;20431;-67
2023/10/13 00:51:32;;;;;;;0.80;0.40;;;;;;;13.75;100.00;100818.66;5047951;28;20947;-69
2023/10/13 00:54:07;;;;;;;0.80;0.40;;;;;;;13.75;100.00;100824.09;5051197;28;20495;-70
2023/10/13 00:56:40;;;;;;;0.80;0.40;;;;;;;13.67;100.00;100825.25;5057355;28;20453;-71
2023/10/13 00:59:10;;;;;;;1.30;0.60;;;;;;;13.73;100.00;100820.78;5061282;28;20417;-69
2023/10/13 01:01:42;;;;;;;0.80;0.40;;;;;;;13.71;100.00;100831.06;5050012;28;20430;-67
2023/10/13 01:04:14;;;;;;;1.00;0.90;;;;;;;13.73;100.00;100826.22;5051182;28;20394;-69
2023/10/13 01:06:43;;;;;;;0.80;0.40;;;;;;;13.68;100.00;100828.78;5041246;28;20500;-69
2023/10/13 01:09:14;;;;;;;0.80;0.40;;;;;;;13.79;100.00;100836.22;5050418;28;21020;-69
2023/10/13 01:11:44;;;;;;;0.90;0.70;;;;;;;13.68;100.00;100834.22;5044049;28;20533;-68
2023/10/13 01:14:17;;;;;;;0.80;0.40;;;;;;;13.67;100.00;100827.13;5050436;28;21115;-68
2023/10/13 01:16:47;;;;;;;0.80;0.40;;;;;;;13.60;100.00;100820.94;5056624;28;20928;-68
2023/10/13 01:19:19;;;;;;;0.80;0.50;;;;;;;13.61;100.00;100817.13;5058360;28;20446;-66
2023/10/13 01:21:48;;;;;;;0.90;0.57;;;;;;;13.71;100.00;100812.00;5053192;28;20445;-67
2023/10/13 01:24:23;;;;;;;0.80;0.40;;;;;;;13.74;100.00;100811.59;5044130;28;20447;-67
2023/10/13 01:26:53;;;;;;;0.80;0.40;;;;;;;13.66;100.00;100820.00;5050454;28;20482;-69
2023/10/13 01:29:28;;;;;;;0.80;0.40;;;;;;;13.70;100.00;100822.06;5050188;28;20424;-68
2023/10/13 01:31:56;;;;;;;0.80;0.40;;;;;;;13.70;100.00;100827.50;5054539;28;20922;-69
2023/10/13 01:34:25;;;;;;;1.00;0.90;;;;;;;13.61;100.00;100825.28;5056597;28;20429;-69
2023/10/13 01:36:55;;;;;;;0.80;0.40;;;;;;;13.69;100.00;100830.47;5051262;28;20410;-69
2023/10/13 01:39:26;;;;;;;0.80;0.40;;;;;;;13.64;100.00;100828.41;5049151;28;20448;-68
2023/10/13 01:41:55;;;;;;;0.80;0.40;;;;;;;13.61;100.00;100831.56;5047086;28;20477;-66
2023/10/13 01:44:28;;;;;;;0.80;0.50;;;;;;;13.72;100.00;100824.56;5046115;28;20425;-70
2023/10/13 01:46:58;;;;;;;0.80;0.50;;;;;;;13.70;100.00;100827.50;5044667;28;20501;-67
2023/10/13 01:49:29;;;;;;;0.80;0.40;;;;;;;13.71;100.00;100823.72;5054414;28;20411;-69
2023/10/13 01:52:03;;;;;;;0.80;0.40;;;;;;;13.63;100.00;100824.03;5051897;28;20826;-68
2023/10/13 01:54:33;;;;;;;0.80;0.50;;;;;;;13.61;100.00;100822.56;5041114;28;20794;-69
2023/10/13 01:57:04;;;;;;;0.80;0.40;;;;;;;13.57;100.00;100822.19;5053303;28;20447;-69
2023/10/13 01:59:32;;;;;;;0.80;0.50;;;;;;;13.68;100.00;100817.91;5049774;28;20453;-69
2023/10/13 02:02:01;;;;;;;1.00;0.70;;;;;;;13.77;100.00;100816.56;5052812;28;20479;-69
2023/10/13 02:04:32;;;;;;;0.80;0.40;;;;;;;13.85;100.00;100824.41;5045365;28;20406;-69
2023/10/13 02:07:01;;;;;;;0.80;0.60;;;;;;;13.76;100.00;100823.06;5051153;28;20454;-69
2023/10/13 02:09:30;;;;;;;0.80;0.40;;;;;;;13.68;100.00;100816.03;5054044;28;20903;-69
2023/10/13 02:11:59;;;;;;;1.67;1.57;;;;;;;13.80;100.00;100803.34;5046987;28;20465;-69
2023/10/13 02:14:27;;;;;;;0.80;0.40;;;;;;;13.70;100.00;100807.66;5041977;28;20453;-69
2023/10/13 02:17:12;;;;;;;0.90;0.80;;;;;;;13.74;100.00;100803.44;5052475;28;20996;-70
2023/10/13 02:19:43;;;;;;;0.80;0.50;;;;;;;13.77;100.00;100794.81;5051277;28;20767;-68
2023/10/13 02:22:25;;;;;;;0.80;0.40;;;;;;;13.84;100.00;100779.25;5048567;28;20460;-69
2023/10/13 02:25:01;;;;;;;0.80;0.40;;;;;;;13.77;100.00;100770.31;5040029;28;20443;-69
2023/10/13 02:27:40;;;;;;;1.00;0.87;;;;;;;13.79;100.00;100757.34;5048019;28;20394;-70
2023/10/13 02:30:13;;;;;;;0.80;0.50;;;;;;;13.69;100.00;100759.75;5041096;28;20457;-70
2023/10/13 02:32:43;;;;;;;0.80;0.40;;;;;;;13.82;100.00;100770.47;5053656;28;20782;-69
2023/10/13 02:35:15;;;;;;;0.80;0.40;;;;;;;13.78;100.00;100777.44;5050094;28;20808;-69
2023/10/13 02:37:54;;;;;;;0.80;0.50;;;;;;;13.73;100.00;100777.28;5055255;28;20394;-69
2023/10/13 02:40:23;;;;;;;0.80;0.50;;;;;;;13.71;100.00;100765.78;5042236;28;20529;-67
2023/10/13 02:42:52;;;;;;;0.80;0.40;;;;;;;13.85;100.00;100764.56;5047678;28;20444;-68
2023/10/13 02:45:25;;;;;;;0.83;0.50;;;;;;;13.83;100.00;100772.16;5041148;28;20411;-68
2023/10/13 02:48:10;;;;;;;0.80;0.53;;;;;;;13.76;100.00;100768.66;5039850;28;20401;-69
2023/10/13 02:50:43;;;;;;;0.80;0.40;;;;;;;13.70;100.00;100762.22;5067640;28;20746;-69
2023/10/13 02:53:18;;;;;;;0.80;0.40;;;;;;;13.92;100.00;100765.34;5046999;28;20438;-66
2023/10/13 02:55:56;;;;;;;0.80;0.40;;;;;;;13.83;100.00;100761.28;5053269;28;20437;-67
2023/10/13 02:58:37;;;;;;;0.80;0.40;;;;;;;13.84;100.00;100757.50;5052868;28;20417;-69
2023/10/13 03:01:17;;;;;;;0.80;0.40;;;;;;;13.85;100.00;100759.13;5055907;28;21035;-67
2023/10/13 03:03:50;;;;;;;2.23;0.87;;;;;;;13.76;100.00;100750.47;5047666;28;20414;-68
2023/10/13 03:06:21;;;;;;;0.80;0.40;;;;;;;13.80;100.00;100739.94;5034652;28;20510;-68
2023/10/13 03:08:50;;;;;;;0.80;0.40;;;;;;;13.76;100.00;100738.75;5045629;28;20394;-69
2023/10/13 03:11:24;;;;;;;0.80;0.40;;;;;;;13.86;100.00;100741.75;5045832;28;20410;-67
2023/10/13 03:13:52;;;;;;;0.80;0.40;;;;;;;13.83;100.00;100734.91;5054511;28;20398;-68
2023/10/13 03:16:21;;;;;;;0.80;0.50;;;;;;;13.93;100.00;100735.22;5044563;28;21055;-68
2023/10/13 03:18:56;;;;;;;3.80;1.63;;;;;;;13.87;100.00;100721.66;5054331;28;20481;-69
2023/10/13 03:21:31;;;;;;;0.80;0.50;;;;;;;13.88;100.00;100724.19;5045857;28;20988;-68
2023/10/13 03:24:06;;;;;;;0.80;0.40;;;;;;;13.84;100.00;100714.81;5051139;28;20987;-68
2023/10/13 03:26:36;;;;;;;1.03;0.90;;;;;;;13.83;100.00;100717.75;5048107;28;20428;-68
2023/10/13 03:29:08;;;;;;;0.80;0.40;;;;;;;13.96;100.00;100719.47;5051611;28;20879;-67
2023/10/13 03:31:39;;;;;;;0.80;0.40;;;;;;;13.92;100.00;100710.94;5054131;28;20439;-68
2023/10/13 03:34:12;;;;;;;0.80;0.40;;;;;;;13.85;100.00;100712.91;5047733;28;20454;-67
2023/10/13 03:36:59;;;;;;;0.80;0.40;;;;;;;13.97;100.00;100697.47;5045372;28;20431;-67
2023/10/13 03:39:30;;;;;;;0.80;0.40;;;;;;;13.96;100.00;100689.53;5049044;28;20406;-67
2023/10/13 03:42:00;;;;;;;0.80;0.40;;;;;;;13.93;100.00;100685.41;5048009;28;20873;-68
2023/10/13 03:44:31;;;;;;;0.80;0.40;;;;;;;13.93;100.00;100679.97;5052420;28;20399;-67
2023/10/13 03:47:17;;;;;;;0.80;0.50;;;;;;;13.92;100.00;100667.41;5048324;28;20717;-68
2023/10/13 03:49:51;;;;;;;0.80;0.60;;;;;;;13.94;100.00;100671.56;5042532;28;20451;-69
2023/10/13 03:52:22;;;;;;;0.90;0.50;;;;;;;14.03;100.00;100680.25;5049713;28;20437;-68
2023/10/13 03:54:51;;;;;;;0.80;0.40;;;;;;;13.94;100.00;100679.72;5047013;28;20931;-69
2023/10/13 03:57:25;;;;;;;1.00;0.90;;;;;;;14.01;100.00;100671.47;5051771;28;20858;-69
2023/10/13 03:59:56;;;;;;;0.80;0.40;;;;;;;14.01;100.00;100667.91;5052659;28;20418;-68
2023/10/13 04:02:27;;;;;;;0.80;0.40;;;;;;;13.99;100.00;100664.63;5051788;28;20520;-68
2023/10/13 04:05:07;;;;;;;0.80;0.40;;;;;;;14.03;100.00;100658.50;5051379;28;20412;-69
2023/10/13 04:08:44;;;;;;;0.80;0.60;;;;;;;14.12;100.00;100659.81;5053133;28;20485;-68
2023/10/13 04:16:34;;;;;;;0.80;0.40;;;;;;;14.19;100.00;100673.31;5040481;28;20446;-68
2023/10/13 04:19:11;;;;;;;0.80;0.40;;;;;;;14.11;100.00;100677.19;5046174;28;20430;-68
2023/10/13 04:21:55;;;;;;;1.07;0.97;;;;;;;14.07;100.00;100673.28;5059086;28;20533;-68
2023/10/13 04:27:29;;;;;;;0.80;0.40;;;;;;;14.10;100.00;100652.94;5050792;28;20411;-66
2023/10/13 04:30:10;;;;;;;0.80;0.40;;;;;;;14.24;100.00;100660.69;5052886;28;20438;-68
2023/10/13 04:32:46;;;;;;;1.10;0.73;;;;;;;14.13;100.00;100650.59;5053316;28;20838;-67
2023/10/13 04:35:18;;;;;;;2.60;1.23;;;;;;;14.15;100.00;100643.03;5047892;28;20441;-68
2023/10/13 04:38:01;;;;;;;0.90;0.60;;;;;;;14.31;100.00;100639.66;5050809;28;20433;-66
2023/10/13 04:40:35;;;;;;;0.80;0.50;;;;;;;14.35;100.00;100635.41;5047654;28;20426;-68
2023/10/13 04:43:04;;;;;;;0.80;0.50;;;;;;;14.33;100.00;100632.06;5050367;28;20417;-70
2023/10/13 04:45:49;;;;;;;0.80;0.40;;;;;;;14.30;100.00;100632.53;5053232;28;20436;-69
2023/10/13 04:48:27;;;;;;;1.17;1.07;;;;;;;14.35;100.00;100635.41;5048207;28;20462;-69
2023/10/13 04:54:04;;;;;;;1.33;1.23;;;;;;;14.30;100.00;100621.66;5042719;28;20445;-68
2023/10/13 04:56:59;;;;;;;3.53;1.93;;;;;;;14.28;100.00;100622.97;5047403;28;20553;-70
2023/10/13 05:00:10;;;;;;;0.80;0.50;;;;;;;14.37;100.00;100623.47;5053983;28;20409;-69
2023/10/13 05:05:45;;;;;;;1.47;1.37;;;;;;;14.32;100.00;100618.69;5018559;28;20423;-68
2023/10/13 05:45:36;;;;;;;2.70;0.70;;;;;;;14.68;100.00;100599.47;5053813;28;20856;-70
2023/10/13 05:48:12;;;;;;;0.80;0.40;;;;;;;14.61;100.00;100606.94;5052156;28;20435;-70
2023/10/13 06:29:46;;;;;;;0.80;0.40;;;;;;;15.52;100.00;100576.28;5046712;28;20862;-69
2023/10/13 06:32:16;;;;;;;0.80;0.43;;;;;;;15.55;100.00;100583.16;5053004;28;20490;-67
2023/10/13 06:34:45;;;;;;;0.80;0.50;;;;;;;15.52;100.00;100580.91;5054535;28;20410;-70
2023/10/13 06:37:24;;;;;;;3.63;1.07;;;;;;;15.55;100.00;100585.88;5045214;28;20556;-68
2023/10/13 06:39:56;;;;;;;0.90;0.80;;;;;;;15.44;100.00;100586.72;5043357;28;20848;-70
2023/10/13 06:42:27;;;;;;;0.80;0.47;;;;;;;15.45;100.00;100578.28;5044167;28;20462;-69
2023/10/13 06:44:56;;;;;;;0.80;0.50;;;;;;;15.43;100.00;100576.88;5037786;28;20489;-69
2023/10/13 06:47:25;;;;;;;0.80;0.40;;;;;;;15.64;100.00;100576.22;5043885;28;20551;-68
2023/10/13 06:49:54;;;;;;;0.80;0.40;;;;;;;15.61;100.00;100582.19;5045968;28;20417;-69
2023/10/13 06:52:29;;;;;;;1.10;0.90;;;;;;;15.62;100.00;100581.97;5045232;28;20448;-68
2023/10/13 06:55:03;;;;;;;0.80;0.40;;;;;;;15.89;100.00;100573.16;5042492;28;20419;-69
2023/10/13 06:57:37;;;;;;;0.80;0.40;;;;;;;16.01;100.00;100577.50;5034123;28;20911;-66
2023/10/13 07:00:11;;;;;;;0.90;0.50;;;;;;;16.24;100.00;100572.97;5049345;28;20416;-69
2023/10/13 07:02:40;;;;;;;0.80;0.40;;;;;;;16.31;100.00;100574.50;5041350;28;20496;-69
2023/10/13 07:05:11;;;;;;;0.90;0.73;;;;;;;16.43;100.00;100577.13;5049081;28;20414;-68
2023/10/13 07:07:41;;;;;;;0.80;0.40;;;;;;;16.54;100.00;100573.50;5043398;28;20417;-68
2023/10/13 07:10:12;;;;;;;3.97;2.20;;;;;;;16.74;100.00;100571.09;5040477;28;20401;-67
2023/10/13 07:12:43;;;;;;;0.90;0.53;;;;;;;17.09;100.00;100570.75;5046716;28;20554;-67
2023/10/13 07:15:19;;;;;;;0.80;0.40;;;;;;;17.22;100.00;100575.06;5051904;28;20443;-69
2023/10/13 07:17:54;;;;;;;1.10;0.93;;;;;;;17.37;100.00;100584.28;5045054;28;20433;-69
2023/10/13 07:20:33;;;;;;;1.00;0.60;;;;;;;17.32;100.00;100575.19;5046901;28;20450;-68
2023/10/13 07:23:04;;;;;;;2.40;0.67;;;;;;;17.28;100.00;100577.59;5043015;28;20578;-65
2023/10/13 07:25:37;;;;;;;1.67;0.90;;;;;;;17.41;100.00;100579.13;5048608;28;20442;-70
2023/10/13 07:28:09;;;;;;;1.17;1.00;;;;;;;17.27;100.00;100569.66;5048610;28;20413;-70
2023/10/13 07:30:47;;;;;;;1.00;0.53;;;;;;;17.34;100.00;100575.75;5042686;28;20445;-66
2023/10/13 07:33:19;;;;;;;1.00;0.77;;;;;;;17.41;100.00;100570.94;5042460;28;20406;-66
2023/10/13 07:35:50;;;;;;;2.43;1.20;;;;;;;17.31;100.00;100557.13;5041731;28;20402;-66
2023/10/13 07:38:21;;;;;;;0.80;0.40;;;;;;;17.28;100.00;100558.44;5048201;28;22508;-69
2023/10/13 07:40:51;;;;;;;0.80;0.50;;;;;;;17.36;100.00;100559.91;5047930;28;20442;-68
2023/10/13 07:43:22;;;;;;;1.10;1.00;;;;;;;17.43;100.00;100548.78;5050529;28;20765;-67
2023/10/13 07:45:52;;;;;;;1.00;0.83;;;;;;;17.49;100.00;100553.22;5053983;28;20409;-67
2023/10/13 07:48:21;;;;;;;0.80;0.40;;;;;;;17.64;100.00;100557.00;5056716;28;20439;-69
2023/10/13 07:51:04;;;;;;;0.90;0.50;;;;;;;17.71;100.00;100556.81;5052102;28;20447;-68
2023/10/13 07:53:35;;;;;;;0.90;0.60;;;;;;;18.00;100.00;100554.63;5048293;28;20426;-69
2023/10/13 07:56:07;;;;;;;0.87;0.60;;;;;;;18.02;100.00;100547.81;5049570;28;20479;-69
2023/10/13 07:58:47;;;;;;;0.80;0.50;;;;;;;18.08;100.00;100554.16;5039567;28;20409;-66
2023/10/13 08:01:19;;;;;;;0.90;0.50;;;;;;;17.98;100.00;100546.69;5043511;28;20439;-69
2023/10/13 08:03:57;;;;;;;0.90;0.70;;;;;;;18.12;100.00;100542.44;5046926;28;20430;-67
2023/10/13 08:06:29;;;;;;;0.90;0.60;;;;;;;18.11;100.00;100550.88;5032933;28;20430;-67
2023/10/13 08:09:07;;;;;;;0.80;0.40;;;;;;;17.90;100.00;100538.94;5047743;28;20523;-69
2023/10/13 08:11:38;;;;;;;0.80;0.50;;;;;;;17.98;100.00;100548.59;5039811;28;20504;-69
2023/10/13 08:14:12;;;;;;;0.80;0.40;;;;;;;18.18;100.00;100540.56;5047385;28;20425;-68
2023/10/13 08:17:34;;;;;;;0.80;0.40;;;;;;;18.40;100.00;100538.53;5071571;28;20463;-70
2023/10/13 08:20:16;;;;;;;0.90;0.60;;;;;;;18.35;100.00;100541.25;5065425;28;20456;-67
2023/10/13 08:22:47;;;;;;;1.07;0.83;;;;;;;18.40;100.00;100544.03;5049230;28;20459;-68
2023/10/13 08:25:20;;;;;;;0.80;0.40;;;;;;;18.76;100.00;100533.34;5042748;28;20435;-68
2023/10/13 08:28:04;;;;;;;1.47;1.37;;;;;;;18.79;100.00;100530.91;5043428;28;20792;-68
2023/10/13 08:30:52;;;;;;;0.80;0.50;;;;;;;18.84;100.00;100525.44;5041088;28;20468;-68
2023/10/13 08:33:26;;;;;;;0.80;0.50;;;;;;;18.95;100.00;100523.59;5033702;28;20455;-67
2023/10/13 08:36:17;;;;;;;0.80;0.50;;;;;;;18.88;100.00;100523.03;5045072;28;20447;-67
2023/10/13 08:38:52;;;;;;;0.90;0.50;;;;;;;18.88;99.50;100531.25;5059881;28;20496;-69
2023/10/13 08:41:31;;;;;;;0.80;0.40;;;;;;;18.90;99.33;100531.78;5041591;28;20885;-69
2023/10/13 08:44:06;;;;;;;0.80;0.40;;;;;;;18.85;100.00;100532.59;5058315;28;20433;-68
2023/10/13 08:49:23;;;;;;;1.00;0.70;;;;;;;18.95;98.98;100505.22;5048947;28;20884;-69
2023/10/13 08:52:06;;;;;;;0.80;0.40;;;;;;;18.93;99.63;100498.34;5045071;28;20836;-68
2023/10/13 08:54:45;;;;;;;2.23;1.80;;;;;;;18.92;99.26;100496.72;5047501;28;20818;-68
2023/10/13 08:57:33;;;;;;;0.80;0.40;;;;;;;18.91;99.46;100500.53;5049982;28;20449;-67
2023/10/13 09:06:00;;;;;;;0.80;0.40;;;;;;;18.55;100.00;100496.75;5037869;28;20449;-69
2023/10/13 09:08:35;;;;;;;0.83;0.60;;;;;;;18.55;100.00;100474.84;5046294;28;20986;-67
2023/10/13 09:11:12;;;;;;;1.00;0.60;;;;;;;18.59;100.00;100493.22;5048806;28;20412;-68
2023/10/13 09:13:44;;;;;;;0.90;0.50;;;;;;;18.65;100.00;100486.69;5043958;28;20453;-67
2023/10/13 09:16:22;;;;;;;1.03;0.93;;;;;;;18.65;100.00;100485.88;5041182;28;20456;-67
2023/10/13 09:18:52;;;;;;;1.97;0.73;;;;;;;18.66;100.00;100484.78;5055624;28;20445;-68
2023/10/13 09:21:43;;;;;;;0.80;0.43;;;;;;;18.63;100.00;100480.66;5045782;28;20421;-68
2023/10/13 09:24:21;;;;;;;0.80;0.40;;;;;;;18.77;100.00;100482.94;5048118;28;20496;-68
2023/10/13 09:26:55;;;;;;;0.80;0.40;;;;;;;18.60;100.00;100467.47;5048623;28;20514;-69
2023/10/13 09:29:24;;;;;;;0.80;0.50;;;;;;;18.58;100.00;100475.16;5042571;28;20418;-68
2023/10/13 09:32:11;;;;;;;0.80;0.40;;;;;;;18.51;100.00;100458.06;5050489;28;20449;-69
2023/10/13 09:34:44;;;;;;;0.80;0.50;;;;;;;18.51;100.00;100457.25;5047169;28;20421;-70
2023/10/13 09:37:20;;;;;;;0.80;0.50;;;;;;;18.58;100.00;100455.16;5053273;28;20448;-68
2023/10/13 09:39:53;;;;;;;0.80;0.40;;;;;;;18.77;100.00;100444.56;5048316;28;20841;-69
2023/10/13 09:42:23;;;;;;;0.83;0.50;;;;;;;18.77;100.00;100441.81;5044129;28;20905;-67
2023/10/13 09:44:55;;;;;;;0.80;0.40;;;;;;;18.92;100.00;100430.91;5045264;28;20841;-68
2023/10/13 09:47:29;;;;;;;0.80;0.50;;;;;;;19.18;100.00;100423.56;5050256;28;20432;-68
2023/10/13 09:50:05;;;;;;;0.80;0.50;;;;;;;19.19;100.00;100425.22;5041968;28;20446;-68
2023/10/13 09:52:37;;;;;;;0.90;0.50;;;;;;;19.08;100.00;100421.63;5053754;28;21018;-70
2023/10/13 09:55:29;;;;;;;0.80;0.40;;;;;;;18.86;100.00;100415.53;5050439;28;20976;-68
2023/10/13 09:58:11;;;;;;;0.80;0.47;;;;;;;18.85;100.00;100408.41;5045829;28;20997;-68
2023/10/13 10:00:49;;;;;;;1.10;0.80;;;;;;;18.71;100.00;100390.78;5048389;28;20408;-68
2023/10/13 10:03:38;;;;;;;0.80;0.40;;;;;;;18.56;100.00;100395.13;5046654;28;20457;-68
2023/10/13 10:06:14;;;;;;;0.80;0.40;;;;;;;18.47;100.00;100402.16;5034967;28;20889;-69
2023/10/13 10:08:50;;;;;;;0.80;0.40;;;;;;;18.60;100.00;100384.44;5042920;28;20462;-68
2023/10/13 10:11:51;;;;;;;0.80;0.50;;;;;;;18.51;100.00;100388.75;5048856;28;20939;-69
2023/10/13 10:14:30;;;;;;;0.97;0.63;;;;;;;18.73;100.00;100388.63;5041947;28;20445;-69
2023/10/13 10:17:07;;;;;;;0.80;0.40;;;;;;;18.82;100.00;100392.50;5040063;28;20500;-67
2023/10/13 10:19:48;;;;;;;2.30;0.90;;;;;;;18.88;100.00;100385.94;5046764;28;20432;-70
2023/10/13 10:22:31;;;;;;;0.80;0.50;;;;;;;18.74;100.00;100387.50;5044831;28;20435;-68
2023/10/13 10:25:01;;;;;;;2.40;0.83;;;;;;;18.63;100.00;100378.44;5049432;28;20860;-67
2023/10/13 10:27:32;;;;;;;0.80;0.40;;;;;;;18.82;100.00;100379.63;5044287;28;20493;-68
2023/10/13 10:30:03;;;;;;;0.90;0.50;;;;;;;18.86;100.00;100371.66;5051363;28;20412;-70
2023/10/13 10:32:36;;;;;;;0.80;0.40;;;;;;;18.82;100.00;100387.00;5040061;28;20441;-67
2023/10/13 10:35:08;;;;;;;0.80;0.40;;;;;;;18.64;100.00;100380.06;5047885;28;20401;-68
2023/10/13 10:37:46;;;;;;;1.70;1.60;;;;;;;18.65;100.00;100377.06;5052447;28;20468;-69
2023/10/13 10:40:33;;;;;;;0.80;0.40;;;;;;;18.56;100.00;100373.19;5046291;28;20399;-70
2023/10/13 10:43:03;;;;;;;1.03;0.80;;;;;;;18.39;100.00;100383.50;5049830;28;20890;-69
2023/10/13 10:45:50;;;;;;;0.80;0.40;;;;;;;18.34;100.00;100364.31;5038916;28;20396;-69
2023/10/13 10:48:21;;;;;;;1.50;1.07;;;;;;;18.31;100.00;100350.28;5050116;28;20430;-67
2023/10/13 10:50:54;;;;;;;0.80;0.40;;;;;;;18.34;100.00;100364.31;5044510;28;20775;-67
2023/10/13 10:53:33;;;;;;;0.90;0.50;;;;;;;18.24;100.00;100340.44;5041413;28;20448;-68
2023/10/13 10:56:19;;;;;;;1.17;1.07;;;;;;;18.41;100.00;100347.59;5044598;28;21037;-66
2023/10/13 10:58:48;;;;;;;0.80;0.50;;;;;;;18.40;100.00;100345.94;5052751;28;20452;-67
2023/10/13 11:01:22;;;;;;;0.90;0.50;;;;;;;18.46;100.00;100336.66;5045195;28;20441;-70
2023/10/13 11:03:57;;;;;;;0.80;0.40;;;;;;;18.60;100.00;100335.94;5038929;28;20922;-68
2023/10/13 11:06:27;;;;;;;1.13;1.03;;;;;;;18.75;100.00;100309.69;5046881;28;20453;-67
2023/10/13 11:09:18;;;;;;;0.80;0.40;;;;;;;18.79;100.00;100319.00;5042383;28;20417;-67
2023/10/13 11:11:52;;;;;;;0.90;0.57;;;;;;;18.92;100.00;100324.00;5045654;28;20425;-67
2023/10/13 11:14:25;;;;;;;0.90;0.60;;;;;;;19.04;100.00;100319.06;5043444;28;20518;-68
2023/10/13 11:16:55;;;;;;;1.03;0.93;;;;;;;18.97;100.00;100297.41;5036902;28;20484;-67
2023/10/13 11:19:36;;;;;;;1.10;0.60;;;;;;;18.97;100.00;100313.03;5047480;28;20865;-66
2023/10/13 11:25:00;;;;;;;0.80;0.50;;;;;;;19.19;100.00;100299.91;5045720;28;20430;-69
2023/10/13 11:30:24;;;;;;;0.80;0.50;;;;;;;19.13;100.00;100305.63;5042897;28;20476;-65
2023/10/13 11:32:59;;;;;;;1.00;0.60;;;;;;;19.09;100.00;100311.69;5035230;28;20458;-68
2023/10/13 11:35:48;;;;;;;0.80;0.40;;;;;;;19.14;100.00;100305.38;5039901;28;20503;-69
2023/10/13 11:38:25;;;;;;;0.90;0.70;;;;;;;19.33;100.00;100295.50;5046598;28;20506;-69
2023/10/13 11:41:15;;;;;;;0.93;0.50;;;;;;;19.27;100.00;100276.56;5041769;28;20450;-68
2023/10/13 11:49:20;;;;;;;0.80;0.40;;;;;;;19.45;100.00;100268.66;5050287;28;20438;-68
2023/10/13 11:51:51;;;;;;;0.80;0.40;;;;;;;19.44;100.00;100277.97;5046502;28;20453;-69
2023/10/13 11:54:21;;;;;;;0.80;0.50;;;;;;;19.47;100.00;100271.09;5045214;28;20875;-69
2023/10/13 11:56:52;;;;;;;1.07;0.97;;;;;;;19.63;100.00;100266.44;5039487;28;20439;-68
2023/10/13 11:59:27;;;;;;;0.90;0.50;;;;;;;19.67;100.00;100260.09;5049300;28;20510;-68
2023/10/13 12:04:48;;;;;;;0.90;0.40;;;;;;;19.66;100.00;100238.41;5046318;28;20817;-67
2023/10/13 12:07:19;;;;;;;1.00;0.67;;;;;;;19.71;100.00;100246.66;5048047;28;20419;-70
2023/10/13 12:10:03;;;;;;;0.80;0.40;;;;;;;19.91;100.00;100235.63;5039287;28;20505;-67
2023/10/13 12:12:40;;;;;;;0.90;0.60;;;;;;;20.04;100.00;100235.03;5046274;28;21135;-68
2023/10/13 12:15:25;;;;;;;0.90;0.40;;;;;;;20.04;100.00;100235.03;5048152;28;20425;-69
2023/10/13 12:17:57;;;;;;;0.80;0.40;;;;;;;20.15;100.00;100230.31;5042932;28;20534;-68
2023/10/13 12:20:33;;;;;;;0.90;0.43;;;;;;;20.13;100.00;100227.84;5038644;28;20446;-67
2023/10/13 12:23:15;;;;;;;1.20;0.80;;;;;;;20.07;100.00;100223.47;5050589;28;20516;-67
2023/10/13 12:26:00;;;;;;;0.90;0.40;;;;;;;20.19;100.00;100214.91;5043897;28;20440;-70
2023/10/13 12:28:37;;;;;;;0.90;0.50;;;;;;;20.17;100.00;100226.19;5049270;28;20412;-66
2023/10/13 12:31:11;;;;;;;0.90;0.50;;;;;;;20.29;100.00;100212.94;5047143;28;20404;-70
2023/10/13 12:33:41;;;;;;;0.90;0.40;;;;;;;20.34;100.00;100210.19;5043529;28;20909;-68
2023/10/13 12:36:14;;;;;;;0.90;0.50;;;;;;;20.34;100.00;100201.94;5047528;28;20430;-68
2023/10/13 12:50:14;;;;;;;0.90;0.50;;;;;;;20.80;97.35;100193.41;5046476;28;20809;-67
2023/10/13 12:52:45;;;;;;;0.90;0.43;;;;;;;20.82;96.59;100188.44;5040671;28;20425;-67
2023/10/13 12:55:19;;;;;;;1.03;0.93;;;;;;;20.90;96.21;100179.59;5046233;28;20403;-68
2023/10/13 12:57:48;;;;;;;2.40;2.03;;;;;;;20.98;95.75;100178.97;5044124;28;20834;-69
2023/10/13 13:00:25;;;;;;;1.30;0.90;;;;;;;20.94;96.37;100177.06;5046695;28;20558;-69
2023/10/13 13:02:55;;;;;;;0.90;0.40;;;;;;;21.02;95.26;100158.00;5053067;28;20442;-69
2023/10/13 13:05:29;;;;;;;0.93;0.50;;;;;;;21.06;95.01;100145.31;5039377;28;20418;-68
2023/10/13 13:07:58;;;;;;;1.37;0.80;;;;;;;21.27;94.56;100147.91;5047361;28;20434;-69
2023/10/13 13:10:35;;;;;;;0.90;0.50;;;;;;;21.16;94.02;100144.44;5045350;28;20434;-68
2023/10/13 13:13:05;;;;;;;0.90;0.50;;;;;;;21.08;94.93;100134.88;5048421;28;20448;-67
2023/10/13 13:15:36;;;;;;;1.03;0.47;;;;;;;21.24;94.35;100133.63;5040856;28;20395;-69
2023/10/13 13:18:11;;;;;;;1.13;0.60;;;;;;;21.35;92.33;100133.53;5040725;28;20448;-68
2023/10/13 13:20:52;;;;;;;1.33;0.50;;;;;;;21.51;91.87;100130.31;5040118;28;20450;-69
2023/10/13 13:23:25;;;;;;;4.60;0.70;;;;;;;21.63;91.19;100121.66;5040980;28;20447;-68
2023/10/13 13:25:56;;;;;;;1.30;0.50;;;;;;;21.54;90.57;100126.16;5045894;28;20467;-69
2023/10/13 13:28:28;;;;;;;1.10;0.67;;;;;;;21.64;89.74;100126.00;5045333;28;21228;-70
2023/10/13 13:30:59;;;;;;;0.90;0.60;;;;;;;21.78;88.61;100126.97;5044936;28;20459;-70
2023/10/13 13:33:33;;;;;;;0.90;0.40;;;;;;;21.97;87.15;100114.06;5044017;28;20865;-70
2023/10/13 13:36:04;;;;;;;1.77;0.70;;;;;;;22.03;86.39;100107.34;5046776;28;20466;-67
2023/10/13 13:38:33;;;;;;;0.90;0.40;;;;;;;21.97;86.03;100103.06;5035840;28;20471;-66
2023/10/13 13:41:09;;;;;;;0.90;0.50;;;;;;;22.19;84.92;100101.63;5047226;28;20408;-68
2023/10/13 13:43:50;;;;;;;0.90;0.50;;;;;;;22.29;84.53;100095.97;5054273;28;20438;-68
2023/10/13 13:46:24;;;;;;;2.20;0.70;;;;;;;22.20;84.89;100097.78;5048287;28;20448;-68
2023/10/13 13:48:58;;;;;;;1.10;0.60;;;;;;;22.28;83.99;100097.09;5043722;28;20438;-68
2023/10/13 13:51:28;;;;;;;1.33;0.60;;;;;;;22.29;83.50;100091.28;5041097;28;20451;-68
2023/10/13 13:53:57;;;;;;;1.10;0.80;;;;;;;22.15;83.86;100097.84;5041139;28;20457;-69
2023/10/13 13:56:28;;;;;;;1.00;0.73;;;;;;;21.97;84.67;100086.53;5043840;28;21017;-67
2023/10/13 13:58:57;;;;;;;1.00;0.63;;;;;;;22.08;83.86;100088.00;5042785;28;20463;-68